sensor_id;sensor_type;location;lat;lon;timestamp;P1;durP1;ratioP1;P2;durP2;ratioP2
33730;SDS011;22931;48.636;9.000;2024-01-27T16:51:22;5.22;;;3.17;;
33730;SDS011;22931;48.636;9.000;2024-01-27T16:56:30;8.85;;;4.47;;
33730;SDS011;22931;48.636;9.000;2024-01-27T17:01:39;8.43;;;3.88;;
33730;SDS011;22931;48.636;9.000;2024-01-27T17:06:50;8.55;;;5.43;;
33730;SDS011;22931;48.636;9.000;2024-01-27T17:11:58;8.57;;;4.47;;
33730;SDS011;22931;48.636;9.000;2024-01-27T17:17:05;7.50;;;3.50;;
33730;SDS011;22931;48.636;9.000;2024-01-27T17:22:16;9.88;;;4.38;;
33730;SDS011;22931;48.636;9.000;2024-01-27T17:27:23;13.40;;;6.25;;
33730;SDS011;22931;48.636;9.000;2024-01-27T17:32:31;12.95;;;6.82;;
33730;SDS011;22931;48.636;9.000;2024-01-27T17:37:42;13.20;;;7.30;;
33730;SDS011;22931;48.636;9.000;2024-01-27T17:42:50;12.95;;;6.28;;
33730;SDS011;22931;48.636;9.000;2024-01-27T17:47:58;15.75;;;7.72;;
33730;SDS011;22931;48.636;9.000;2024-01-27T17:53:08;13.00;;;7.18;;
33730;SDS011;22931;48.636;9.000;2024-01-27T17:58:18;9.82;;;5.43;;
33730;SDS011;22931;48.636;9.000;2024-01-27T18:03:26;10.60;;;5.90;;
33730;SDS011;22931;48.636;9.000;2024-01-27T18:08:36;13.32;;;5.57;;
33730;SDS011;22931;48.636;9.000;2024-01-27T18:13:44;11.05;;;4.90;;
33730;SDS011;22931;48.636;9.000;2024-01-27T18:18:54;14.13;;;6.20;;
33730;SDS011;22931;48.636;9.000;2024-01-27T18:24:06;10.77;;;5.43;;
33730;SDS011;22931;48.636;9.000;2024-01-27T18:29:13;11.15;;;6.35;;
33730;SDS011;22931;48.636;9.000;2024-01-27T18:34:21;10.02;;;5.30;;
33730;SDS011;22931;48.636;9.000;2024-01-27T18:39:32;11.80;;;6.72;;
33730;SDS011;22931;48.636;9.000;2024-01-27T18:44:40;16.83;;;7.82;;
33730;SDS011;22931;48.636;9.000;2024-01-27T18:49:47;7.40;;;5.43;;
33730;SDS011;22931;48.636;9.000;2024-01-27T18:54:58;8.57;;;5.63;;
33730;SDS011;22931;48.636;9.000;2024-01-27T19:05:14;9.65;;;5.25;;
33730;SDS011;22931;48.636;9.000;2024-01-27T19:10:26;10.10;;;5.75;;
33730;SDS011;22931;48.636;9.000;2024-01-27T19:15:34;13.85;;;7.03;;
33730;SDS011;22931;48.636;9.000;2024-01-27T19:20:41;13.13;;;7.90;;
33730;SDS011;22931;48.636;9.000;2024-01-27T19:25:52;12.23;;;7.15;;
33730;SDS011;22931;48.636;9.000;2024-01-27T19:30:59;13.05;;;6.30;;
33730;SDS011;22931;48.636;9.000;2024-01-27T19:36:07;9.77;;;5.10;;
33730;SDS011;22931;48.636;9.000;2024-01-27T19:41:19;7.10;;;3.83;;
33730;SDS011;22931;48.636;9.000;2024-01-27T19:46:27;12.40;;;5.50;;
33730;SDS011;22931;48.636;9.000;2024-01-27T19:51:34;15.30;;;5.93;;
33730;SDS011;22931;48.636;9.000;2024-01-27T19:56:52;12.10;;;5.78;;
33730;SDS011;22931;48.636;9.000;2024-01-27T20:02:02;15.82;;;6.63;;
33730;SDS011;22931;48.636;9.000;2024-01-27T20:07:10;8.60;;;4.65;;
33730;SDS011;22931;48.636;9.000;2024-01-27T20:12:21;12.38;;;4.70;;
33730;SDS011;22931;48.636;9.000;2024-01-27T20:17:29;8.18;;;5.30;;
33730;SDS011;22931;48.636;9.000;2024-01-27T20:22:36;15.05;;;6.90;;
33730;SDS011;22931;48.636;9.000;2024-01-27T20:27:46;8.85;;;5.30;;
33730;SDS011;22931;48.636;9.000;2024-01-27T20:32:57;11.40;;;5.97;;
33730;SDS011;22931;48.636;9.000;2024-01-27T20:38:06;9.52;;;5.25;;
33730;SDS011;22931;48.636;9.000;2024-01-27T20:43:18;10.80;;;6.82;;
33730;SDS011;22931;48.636;9.000;2024-01-27T20:48:30;13.63;;;6.32;;
33730;SDS011;22931;48.636;9.000;2024-01-27T20:53:40;10.33;;;5.30;;
33730;SDS011;22931;48.636;9.000;2024-01-27T20:58:59;8.82;;;4.63;;
33730;SDS011;22931;48.636;9.000;2024-01-27T21:04:35;9.00;;;5.05;;
33730;SDS011;22931;48.636;9.000;2024-01-27T21:40:15;6.80;;;3.70;;
33730;SDS011;22931;48.636;9.000;2024-01-27T21:45:29;7.82;;;3.80;;
33730;SDS011;22931;48.636;9.000;2024-01-27T22:09:59;8.18;;;4.57;;
33730;SDS011;22931;48.636;9.000;2024-01-27T22:16:14;7.00;;;4.03;;
33730;SDS011;22931;48.636;9.000;2024-01-27T22:45:41;6.57;;;3.95;;
33730;SDS011;22931;48.636;9.000;2024-01-27T22:50:53;8.63;;;4.15;;
33730;SDS011;22931;48.636;9.000;2024-01-27T22:56:14;7.45;;;4.70;;
33730;SDS011;22931;48.636;9.000;2024-01-27T23:01:33;8.13;;;4.18;;
33730;SDS011;22931;48.636;9.000;2024-01-27T23:06:40;5.35;;;4.15;;
33730;SDS011;22931;48.636;9.000;2024-01-27T23:11:48;4.90;;;3.75;;
33730;SDS011;22931;48.636;9.000;2024-01-27T23:16:59;7.68;;;4.70;;
33730;SDS011;22931;48.636;9.000;2024-01-27T23:22:06;6.85;;;3.90;;
33730;SDS011;22931;48.636;9.000;2024-01-27T23:27:14;6.95;;;3.55;;
33730;SDS011;22931;48.636;9.000;2024-01-27T23:32:25;5.90;;;3.72;;
33730;SDS011;22931;48.636;9.000;2024-01-27T23:37:33;4.95;;;3.25;;
33730;SDS011;22931;48.636;9.000;2024-01-27T23:42:42;6.00;;;2.90;;
33730;SDS011;22931;48.636;9.000;2024-01-27T23:47:52;7.85;;;3.97;;
33730;SDS011;22931;48.636;9.000;2024-01-27T23:53:00;6.38;;;3.30;;
33730;SDS011;22931;48.636;9.000;2024-01-27T23:58:13;4.30;;;2.80;;
